This is the latest recevied weather packets stored in our database for station/object BV5AB-13. If no packets are shown the sender has not sent any weather packets the latest 1 day(s).
| Time | Temp. | Humidity | Pressure | Rain* | Wind** | Luminosity | Snow |
|---|---|---|---|---|---|---|---|
| 1778075824 | 23.89° C | 87% | 1002.6 hPa | 0 mm | - | - | - |
| 1778073424 | 25° C | 84% | 1002.5 hPa | 0 mm | - | - | - |
| 1778072824 | 24.44° C | 84% | 1002.5 hPa | 0 mm | - | - | - |
| 1778071625 | 25° C | 82% | 1002.3 hPa | 0 mm | - | - | - |
| 1778061423 | 27.78° C | 68% | 1001 hPa | 0 mm | - | - | - |
| 1778060824 | 27.78° C | 69% | 1001 hPa | 0 mm | - | - | - |
| 1778059024 | 27.78° C | 68% | 1000.9 hPa | 0 mm | - | - | - |
| 1778058423 | 27.78° C | 67% | 1000.9 hPa | 0 mm | - | - | - |
| 1778057824 | 28.33° C | 66% | 1000.8 hPa | 0 mm | - | - | - |
| 1778056624 | 28.33° C | 64% | 1000.8 hPa | 0 mm | - | - | - |
| 1778056023 | 28.89° C | 63% | 1000.8 hPa | 0 mm | - | - | - |
| 1778055425 | 28.89° C | 63% | 1000.9 hPa | 0 mm | - | - | - |
| 1778054224 | 28.89° C | 64% | 1001 hPa | 0 mm | - | - | - |
| 1778053624 | 28.89° C | 65% | 1001.1 hPa | 0 mm | - | - | - |
| 1778053024 | 28.89° C | 63% | 1001.1 hPa | 0 mm | - | - | - |
| 1778050024 | 28.33° C | 67% | 1001.6 hPa | 0 mm | - | - | - |
| 1778048224 | 28.89° C | 66% | 1001.7 hPa | 0 mm | - | - | - |
| 1778047624 | 28.89° C | 67% | 1001.8 hPa | 0 mm | - | - | - |
| 1778046424 | 28.89° C | 66% | 1001.9 hPa | 0 mm | - | - | - |
| 1778045824 | 29.44° C | 67% | 1002 hPa | 0 mm | - | - | - |
| 1778044624 | 29.44° C | 64% | 1002.2 hPa | 0 mm | - | - | - |
| 1778042824 | 29.44° C | 68% | 1002.4 hPa | 0 mm | - | - | - |
| 1778041023 | 28.89° C | 58% | 1002.7 hPa | 0 mm | - | - | - |
| 1778039824 | 28.89° C | 66% | 1002.9 hPa | 0 mm | - | - | - |
| 1778039223 | 28.33° C | 66% | 1003.1 hPa | 0 mm | - | - | - |
* Rain latest hour (hover to see other rain measurements)
** Current wind speed in m/s (hover to see current wind gust speed)